Terminal Aerodrome Forecast
Issued by NWS Indianapolis, IN

Home | Current Version | Previous Version | Text Only | Print | Product List | Glossary On
Versions: 1 2 3 4 5 6 7 8 9 10 11 12 13 14 15 16 17 18 19 20 21 22 23 24 25 26 27 28 29 30
138
FTUS43 KIND 010805 AAB
TAFIND
TAF AMD
KIND 010805Z 0108/0212 21006KT 5SM BR SCT005 BKN014
     FM011000 21005KT 4SM BR OVC005
     FM011700 27008KT P6SM SCT015 BKN040 PROB30 0120/0202 3SM TSRA
      BKN015CB OVC040
     FM020200 30007KT P6SM BKN040=

USA.gov is the U.S. government's official web portal to all federal, state and local government web resources and services.